Decoded Metar for KFSM (FORT SMITH in AR, USA) (IATA:FSM) | Meteo·Mobile Aviation Weather
aviador You're here:

KFSM Decoded Metar

FORT SMITH in AR, USA
Report Time2019-08-19 04:53:00
UTC Time2019-08-19 05:34:19
Flight Rules vfr VFR
Wind080° at 04 kt
W.Decomp.*RWY 07: 4.0 kt HW 0.3 kt RCW
RWY 01: 1.7 kt HW 3.6 kt RCW
Visibility9999 m
Phenomena:N/A
Clouds:N/A
Expected CloudBase > 800 ft AGL from Temp-Dew spread
CeilingNone
Temp26°C (ISA +12)
Dew Point24°C (89% RH)
QNH1014 hPa
Density Alt2,195 ft
Elevation459 ft
Report Wrong Elevation
Raw Report
KFSM 190453Z AUTO 08004KT 10SM CLR 26/24 A2995 RMK AO2 SLP134
T02560239=

Extra information for KFSM:More info

Metar Taf Metar & Taf Last 4 Metars F.Rules Stats Wind Profile Meteogram Temp Stats Airport Information Weather charts Add Link Nearby VenuesMetar ALERT Operation Metar Decoded Social comments

AIRNAV info for KFSM